This is the latest recevied weather packets stored in our database for station/object KD4KKF. If no packets are shown the sender has not sent any weather packets the latest 10 day(s).
| Time | Temp. | Humidity | Pressure | Rain* | Wind** | Luminosity | Snow |
|---|---|---|---|---|---|---|---|
| 1777767979 | 15° C | 73% | 1015.6 hPa | 0 mm | - | 7 W/m² | - |
| 1777767675 | 15.56° C | 69% | 1015.6 hPa | 0 mm | - | 12 W/m² | - |
| 1777767371 | 15.56° C | 68% | 1015.4 hPa | 0 mm | - | 16 W/m² | - |
| 1777767069 | 16.11° C | 66% | 1015.4 hPa | 0 mm | - | 19 W/m² | - |
| 1777766766 | 16.67° C | 53% | 1015.2 hPa | 0 mm | - | 22 W/m² | - |
| 1777766463 | 17.22° C | 54% | 1015.3 hPa | 0 mm | - | 25 W/m² | - |
| 1777766159 | 17.22° C | 52% | 1015.3 hPa | 0 mm | - | 29 W/m² | - |
| 1777765858 | 17.78° C | 50% | 1015.2 hPa | 0 mm | - | 32 W/m² | - |
| 1777765553 | 17.78° C | 54% | 1015.2 hPa | 0 mm | - | 37 W/m² | - |
| 1777765251 | 18.33° C | 50% | 1014.9 hPa | 0 mm | - | 40 W/m² | - |
| 1777764951 | 18.33° C | 52% | 1015 hPa | 0 mm | - | 48 W/m² | - |
| 1777764649 | 18.33° C | 47% | 1014.8 hPa | 0 mm | - | 47 W/m² | - |
| 1777764344 | 18.89° C | 48% | 1015 hPa | 0 mm | - | 49 W/m² | - |
| 1777764042 | 18.89° C | 46% | 1015 hPa | 0 mm | - | 52 W/m² | - |
| 1777763739 | 19.44° C | 44% | 1015.1 hPa | 0 mm | - | 55 W/m² | - |
| 1777763437 | 20° C | 47% | 1015 hPa | 0 mm | - | 144 W/m² | - |
| 1777763135 | 20° C | 42% | 1015 hPa | 0 mm | - | 150 W/m² | - |
| 1777762833 | 20° C | 43% | 1015.1 hPa | 0 mm | - | 176 W/m² | - |
| 1777762528 | 20° C | 42% | 1015.1 hPa | 0 mm | - | 199 W/m² | - |
| 1777762226 | 20.56° C | 41% | 1014.8 hPa | 0 mm | - | 207 W/m² | - |
| 1777761922 | 20° C | 41% | 1015.2 hPa | 0 mm | - | 229 W/m² | - |
| 1777761619 | 20.56° C | 43% | 1014.9 hPa | 0 mm | - | 249 W/m² | - |
| 1777761317 | 20° C | 44% | 1015.2 hPa | 0 mm | - | 266 W/m² | - |
| 1777761015 | 20.56° C | 41% | 1015 hPa | 0 mm | - | 279 W/m² | - |
| 1777760712 | 19.44° C | 41% | 1015.2 hPa | 0 mm | - | 315 W/m² | - |
* Rain latest hour (hover to see other rain measurements)
** Current wind speed in m/s (hover to see current wind gust speed)